sensor_id;sensor_type;location;lat;lon;timestamp;P1;durP1;ratioP1;P2;durP2;ratioP2
16478;SDS011;8350;52.316;10.530;2022-08-21T00:00:42;3.35;;;1.85;;
16478;SDS011;8350;52.316;10.530;2022-08-21T00:03:09;5.72;;;1.85;;
16478;SDS011;8350;52.316;10.530;2022-08-21T00:05:38;2.85;;;1.50;;
16478;SDS011;8350;52.316;10.530;2022-08-21T00:08:08;2.75;;;1.60;;
16478;SDS011;8350;52.316;10.530;2022-08-21T00:10:40;3.72;;;2.17;;
16478;SDS011;8350;52.316;10.530;2022-08-21T00:13:07;3.08;;;1.73;;
16478;SDS011;8350;52.316;10.530;2022-08-21T00:15:35;2.58;;;1.48;;
16478;SDS011;8350;52.316;10.530;2022-08-21T00:18:03;3.28;;;1.60;;
16478;SDS011;8350;52.316;10.530;2022-08-21T00:20:31;3.53;;;1.50;;
16478;SDS011;8350;52.316;10.530;2022-08-21T00:22:59;2.45;;;1.58;;
16478;SDS011;8350;52.316;10.530;2022-08-21T00:25:26;3.20;;;1.60;;
16478;SDS011;8350;52.316;10.530;2022-08-21T00:27:55;3.13;;;1.52;;
16478;SDS011;8350;52.316;10.530;2022-08-21T00:30:23;1.60;;;1.50;;
16478;SDS011;8350;52.316;10.530;2022-08-21T00:32:51;3.28;;;2.08;;
16478;SDS011;8350;52.316;10.530;2022-08-21T00:35:20;3.25;;;2.30;;
16478;SDS011;8350;52.316;10.530;2022-08-21T00:37:49;2.22;;;1.30;;
16478;SDS011;8350;52.316;10.530;2022-08-21T00:40:16;2.97;;;1.38;;
16478;SDS011;8350;52.316;10.530;2022-08-21T00:42:46;3.08;;;1.65;;
16478;SDS011;8350;52.316;10.530;2022-08-21T00:45:16;1.70;;;1.60;;
16478;SDS011;8350;52.316;10.530;2022-08-21T00:47:43;2.03;;;1.75;;
16478;SDS011;8350;52.316;10.530;2022-08-21T00:50:10;2.83;;;1.52;;
16478;SDS011;8350;52.316;10.530;2022-08-21T00:52:38;2.28;;;1.48;;
16478;SDS011;8350;52.316;10.530;2022-08-21T00:55:08;3.45;;;1.70;;
16478;SDS011;8350;52.316;10.530;2022-08-21T00:57:38;3.17;;;1.63;;
16478;SDS011;8350;52.316;10.530;2022-08-21T01:00:09;1.88;;;1.40;;
16478;SDS011;8350;52.316;10.530;2022-08-21T01:02:39;4.20;;;2.25;;
16478;SDS011;8350;52.316;10.530;2022-08-21T01:05:07;2.42;;;1.85;;
16478;SDS011;8350;52.316;10.530;2022-08-21T01:07:34;3.65;;;2.03;;
16478;SDS011;8350;52.316;10.530;2022-08-21T01:10:02;2.45;;;2.03;;
16478;SDS011;8350;52.316;10.530;2022-08-21T01:12:30;1.65;;;1.55;;
16478;SDS011;8350;52.316;10.530;2022-08-21T01:14:59;1.90;;;1.73;;
16478;SDS011;8350;52.316;10.530;2022-08-21T01:17:31;2.35;;;1.60;;
16478;SDS011;8350;52.316;10.530;2022-08-21T01:20:00;2.83;;;1.55;;
16478;SDS011;8350;52.316;10.530;2022-08-21T01:22:32;2.30;;;1.70;;
16478;SDS011;8350;52.316;10.530;2022-08-21T01:24:58;2.05;;;1.70;;
16478;SDS011;8350;52.316;10.530;2022-08-21T01:27:25;1.98;;;1.67;;
16478;SDS011;8350;52.316;10.530;2022-08-21T01:29:53;3.33;;;1.58;;
16478;SDS011;8350;52.316;10.530;2022-08-21T01:32:23;2.35;;;1.60;;
16478;SDS011;8350;52.316;10.530;2022-08-21T01:34:50;5.07;;;2.10;;
16478;SDS011;8350;52.316;10.530;2022-08-21T01:37:18;2.95;;;1.90;;
16478;SDS011;8350;52.316;10.530;2022-08-21T01:39:47;2.50;;;1.80;;
16478;SDS011;8350;52.316;10.530;2022-08-21T01:42:14;1.73;;;1.42;;
16478;SDS011;8350;52.316;10.530;2022-08-21T01:44:43;2.38;;;1.45;;
16478;SDS011;8350;52.316;10.530;2022-08-21T01:47:11;2.10;;;1.35;;
16478;SDS011;8350;52.316;10.530;2022-08-21T01:49:40;3.90;;;1.98;;
16478;SDS011;8350;52.316;10.530;2022-08-21T01:52:08;3.13;;;1.85;;
16478;SDS011;8350;52.316;10.530;2022-08-21T01:54:36;2.67;;;1.70;;
16478;SDS011;8350;52.316;10.530;2022-08-21T01:57:04;2.90;;;2.10;;
16478;SDS011;8350;52.316;10.530;2022-08-21T01:59:31;1.65;;;1.55;;
16478;SDS011;8350;52.316;10.530;2022-08-21T02:01:58;1.83;;;1.45;;
16478;SDS011;8350;52.316;10.530;2022-08-21T02:04:25;1.95;;;1.60;;
16478;SDS011;8350;52.316;10.530;2022-08-21T02:06:52;2.38;;;1.88;;
16478;SDS011;8350;52.316;10.530;2022-08-21T02:09:19;3.25;;;1.90;;
16478;SDS011;8350;52.316;10.530;2022-08-21T02:11:47;3.15;;;1.88;;
16478;SDS011;8350;52.316;10.530;2022-08-21T02:14:15;1.63;;;1.30;;
16478;SDS011;8350;52.316;10.530;2022-08-21T02:16:42;1.50;;;1.40;;
16478;SDS011;8350;52.316;10.530;2022-08-21T02:19:10;1.92;;;1.50;;
16478;SDS011;8350;52.316;10.530;2022-08-21T02:21:38;2.63;;;1.30;;
16478;SDS011;8350;52.316;10.530;2022-08-21T02:24:06;2.88;;;1.50;;
16478;SDS011;8350;52.316;10.530;2022-08-21T02:26:33;1.50;;;1.40;;
16478;SDS011;8350;52.316;10.530;2022-08-21T02:29:01;3.30;;;1.70;;
16478;SDS011;8350;52.316;10.530;2022-08-21T02:31:30;3.53;;;1.52;;
16478;SDS011;8350;52.316;10.530;2022-08-21T02:33:57;6.05;;;2.45;;
16478;SDS011;8350;52.316;10.530;2022-08-21T02:36:24;2.00;;;1.52;;
16478;SDS011;8350;52.316;10.530;2022-08-21T02:38:51;2.30;;;1.60;;
16478;SDS011;8350;52.316;10.530;2022-08-21T02:41:19;2.63;;;1.50;;
16478;SDS011;8350;52.316;10.530;2022-08-21T02:43:47;2.83;;;1.83;;
16478;SDS011;8350;52.316;10.530;2022-08-21T02:46:14;2.97;;;1.60;;
16478;SDS011;8350;52.316;10.530;2022-08-21T02:48:44;2.97;;;2.17;;
16478;SDS011;8350;52.316;10.530;2022-08-21T02:51:14;3.38;;;2.13;;
16478;SDS011;8350;52.316;10.530;2022-08-21T02:53:43;3.22;;;2.55;;
16478;SDS011;8350;52.316;10.530;2022-08-21T02:56:12;2.10;;;1.98;;
16478;SDS011;8350;52.316;10.530;2022-08-21T02:58:44;2.47;;;1.80;;
16478;SDS011;8350;52.316;10.530;2022-08-21T03:01:12;2.45;;;1.90;;
16478;SDS011;8350;52.316;10.530;2022-08-21T03:03:40;2.42;;;2.22;;
16478;SDS011;8350;52.316;10.530;2022-08-21T03:06:11;2.60;;;1.80;;
16478;SDS011;8350;52.316;10.530;2022-08-21T03:08:38;4.13;;;2.20;;
16478;SDS011;8350;52.316;10.530;2022-08-21T03:11:05;2.40;;;2.05;;
16478;SDS011;8350;52.316;10.530;2022-08-21T03:13:32;5.07;;;2.33;;
16478;SDS011;8350;52.316;10.530;2022-08-21T03:15:59;3.20;;;1.67;;
16478;SDS011;8350;52.316;10.530;2022-08-21T03:18:26;1.58;;;1.48;;
16478;SDS011;8350;52.316;10.530;2022-08-21T03:20:53;1.83;;;1.50;;
16478;SDS011;8350;52.316;10.530;2022-08-21T03:23:21;1.50;;;1.40;;
16478;SDS011;8350;52.316;10.530;2022-08-21T03:25:48;2.53;;;1.40;;
16478;SDS011;8350;52.316;10.530;2022-08-21T03:28:16;1.25;;;1.15;;
16478;SDS011;8350;52.316;10.530;2022-08-21T03:30:47;1.40;;;1.30;;
16478;SDS011;8350;52.316;10.530;2022-08-21T03:33:15;3.38;;;1.10;;
16478;SDS011;8350;52.316;10.530;2022-08-21T03:35:43;1.23;;;1.13;;
16478;SDS011;8350;52.316;10.530;2022-08-21T03:38:12;1.95;;;1.25;;
16478;SDS011;8350;52.316;10.530;2022-08-21T03:40:40;1.40;;;1.02;;
16478;SDS011;8350;52.316;10.530;2022-08-21T03:43:08;1.17;;;1.08;;
16478;SDS011;8350;52.316;10.530;2022-08-21T03:45:35;1.58;;;1.08;;
16478;SDS011;8350;52.316;10.530;2022-08-21T03:48:02;1.20;;;1.10;;
16478;SDS011;8350;52.316;10.530;2022-08-21T03:50:32;1.10;;;1.00;;
16478;SDS011;8350;52.316;10.530;2022-08-21T03:53:01;1.38;;;1.10;;
16478;SDS011;8350;52.316;10.530;2022-08-21T03:55:29;2.60;;;1.50;;
16478;SDS011;8350;52.316;10.530;2022-08-21T03:57:57;3.53;;;1.58;;
16478;SDS011;8350;52.316;10.530;2022-08-21T04:00:25;1.40;;;1.27;;
16478;SDS011;8350;52.316;10.530;2022-08-21T04:02:52;1.45;;;1.35;;
16478;SDS011;8350;52.316;10.530;2022-08-21T04:05:19;1.95;;;1.17;;
16478;SDS011;8350;52.316;10.530;2022-08-21T04:07:53;1.63;;;1.50;;
16478;SDS011;8350;52.316;10.530;2022-08-21T04:10:21;1.58;;;1.48;;
16478;SDS011;8350;52.316;10.530;2022-08-21T04:12:50;1.63;;;1.52;;
16478;SDS011;8350;52.316;10.530;2022-08-21T04:15:18;1.48;;;1.27;;
16478;SDS011;8350;52.316;10.530;2022-08-21T04:17:46;1.42;;;1.33;;
16478;SDS011;8350;52.316;10.530;2022-08-21T04:20:13;1.40;;;1.30;;
16478;SDS011;8350;52.316;10.530;2022-08-21T04:22:40;1.85;;;1.38;;
16478;SDS011;8350;52.316;10.530;2022-08-21T04:25:07;1.20;;;1.10;;
16478;SDS011;8350;52.316;10.530;2022-08-21T04:27:34;2.20;;;1.23;;
16478;SDS011;8350;52.316;10.530;2022-08-21T04:30:01;4.20;;;1.40;;
16478;SDS011;8350;52.316;10.530;2022-08-21T04:32:30;1.88;;;1.48;;
16478;SDS011;8350;52.316;10.530;2022-08-21T04:34:58;3.35;;;1.75;;
16478;SDS011;8350;52.316;10.530;2022-08-21T04:37:26;2.22;;;1.70;;
16478;SDS011;8350;52.316;10.530;2022-08-21T04:39:52;2.17;;;1.52;;
16478;SDS011;8350;52.316;10.530;2022-08-21T04:42:21;2.22;;;1.90;;
16478;SDS011;8350;52.316;10.530;2022-08-21T04:44:51;2.67;;;1.83;;
16478;SDS011;8350;52.316;10.530;2022-08-21T04:47:18;2.67;;;1.65;;
16478;SDS011;8350;52.316;10.530;2022-08-21T04:49:46;1.35;;;1.25;;
16478;SDS011;8350;52.316;10.530;2022-08-21T04:52:14;2.30;;;1.70;;
16478;SDS011;8350;52.316;10.530;2022-08-21T04:54:43;2.88;;;1.65;;
16478;SDS011;8350;52.316;10.530;2022-08-21T04:57:11;1.58;;;1.48;;
16478;SDS011;8350;52.316;10.530;2022-08-21T04:59:42;1.92;;;1.75;;
16478;SDS011;8350;52.316;10.530;2022-08-21T05:02:13;2.17;;;1.73;;
16478;SDS011;8350;52.316;10.530;2022-08-21T05:04:42;3.38;;;1.92;;
16478;SDS011;8350;52.316;10.530;2022-08-21T05:07:14;1.88;;;1.70;;
16478;SDS011;8350;52.316;10.530;2022-08-21T05:09:43;2.03;;;1.88;;
16478;SDS011;8350;52.316;10.530;2022-08-21T05:12:10;2.92;;;1.60;;
16478;SDS011;8350;52.316;10.530;2022-08-21T05:14:37;1.95;;;1.63;;
16478;SDS011;8350;52.316;10.530;2022-08-21T05:17:04;2.17;;;1.40;;
16478;SDS011;8350;52.316;10.530;2022-08-21T05:19:31;2.67;;;1.50;;
16478;SDS011;8350;52.316;10.530;2022-08-21T05:21:57;1.48;;;1.30;;
16478;SDS011;8350;52.316;10.530;2022-08-21T05:24:27;4.10;;;1.63;;
16478;SDS011;8350;52.316;10.530;2022-08-21T05:26:54;1.85;;;1.40;;
16478;SDS011;8350;52.316;10.530;2022-08-21T05:29:24;1.80;;;1.70;;
16478;SDS011;8350;52.316;10.530;2022-08-21T05:31:50;3.15;;;1.50;;
16478;SDS011;8350;52.316;10.530;2022-08-21T05:34:18;2.72;;;1.63;;
16478;SDS011;8350;52.316;10.530;2022-08-21T05:36:46;2.67;;;1.90;;
16478;SDS011;8350;52.316;10.530;2022-08-21T05:39:13;1.45;;;1.30;;
16478;SDS011;8350;52.316;10.530;2022-08-21T05:41:41;1.80;;;1.50;;
16478;SDS011;8350;52.316;10.530;2022-08-21T05:44:08;2.85;;;1.70;;
16478;SDS011;8350;52.316;10.530;2022-08-21T05:46:34;2.58;;;1.73;;
16478;SDS011;8350;52.316;10.530;2022-08-21T05:49:01;3.15;;;2.25;;
16478;SDS011;8350;52.316;10.530;2022-08-21T05:51:28;2.83;;;1.85;;
16478;SDS011;8350;52.316;10.530;2022-08-21T05:53:55;2.60;;;2.40;;
16478;SDS011;8350;52.316;10.530;2022-08-21T05:56:21;4.00;;;1.83;;
16478;SDS011;8350;52.316;10.530;2022-08-21T05:58:49;3.28;;;2.10;;
16478;SDS011;8350;52.316;10.530;2022-08-21T06:01:16;3.92;;;2.10;;
16478;SDS011;8350;52.316;10.530;2022-08-21T06:03:43;4.85;;;2.00;;
16478;SDS011;8350;52.316;10.530;2022-08-21T06:06:10;5.95;;;1.98;;
16478;SDS011;8350;52.316;10.530;2022-08-21T06:08:37;2.00;;;1.80;;
16478;SDS011;8350;52.316;10.530;2022-08-21T06:11:05;5.28;;;1.75;;
16478;SDS011;8350;52.316;10.530;2022-08-21T06:13:32;4.78;;;1.80;;
16478;SDS011;8350;52.316;10.530;2022-08-21T06:16:02;2.72;;;1.95;;
16478;SDS011;8350;52.316;10.530;2022-08-21T06:18:31;2.55;;;2.00;;
16478;SDS011;8350;52.316;10.530;2022-08-21T06:20:58;4.50;;;2.20;;
16478;SDS011;8350;52.316;10.530;2022-08-21T06:23:25;2.95;;;2.00;;
16478;SDS011;8350;52.316;10.530;2022-08-21T06:25:52;2.30;;;2.10;;
16478;SDS011;8350;52.316;10.530;2022-08-21T06:28:18;3.90;;;2.10;;
16478;SDS011;8350;52.316;10.530;2022-08-21T06:30:45;2.50;;;1.88;;
16478;SDS011;8350;52.316;10.530;2022-08-21T06:33:13;4.75;;;2.00;;
16478;SDS011;8350;52.316;10.530;2022-08-21T06:35:40;3.50;;;2.00;;
16478;SDS011;8350;52.316;10.530;2022-08-21T06:38:07;4.07;;;1.95;;
16478;SDS011;8350;52.316;10.530;2022-08-21T06:40:34;2.05;;;1.58;;
16478;SDS011;8350;52.316;10.530;2022-08-21T06:43:05;5.38;;;1.75;;
16478;SDS011;8350;52.316;10.530;2022-08-21T06:45:33;3.20;;;2.10;;
16478;SDS011;8350;52.316;10.530;2022-08-21T06:48:00;3.90;;;2.45;;
16478;SDS011;8350;52.316;10.530;2022-08-21T06:50:29;2.90;;;1.90;;
16478;SDS011;8350;52.316;10.530;2022-08-21T06:52:59;3.03;;;1.73;;
16478;SDS011;8350;52.316;10.530;2022-08-21T06:55:28;3.55;;;2.50;;
16478;SDS011;8350;52.316;10.530;2022-08-21T06:57:55;5.38;;;2.25;;
16478;SDS011;8350;52.316;10.530;2022-08-21T07:00:22;3.67;;;2.10;;
16478;SDS011;8350;52.316;10.530;2022-08-21T07:02:49;3.03;;;1.98;;
16478;SDS011;8350;52.316;10.530;2022-08-21T07:05:16;3.25;;;2.40;;
16478;SDS011;8350;52.316;10.530;2022-08-21T07:07:44;2.40;;;2.20;;
16478;SDS011;8350;52.316;10.530;2022-08-21T07:10:11;3.35;;;2.22;;
16478;SDS011;8350;52.316;10.530;2022-08-21T07:12:39;2.45;;;2.22;;
16478;SDS011;8350;52.316;10.530;2022-08-21T07:15:06;3.30;;;2.45;;
16478;SDS011;8350;52.316;10.530;2022-08-21T07:17:35;3.90;;;2.22;;
16478;SDS011;8350;52.316;10.530;2022-08-21T07:20:02;4.57;;;2.10;;
16478;SDS011;8350;52.316;10.530;2022-08-21T07:22:30;4.55;;;2.00;;
16478;SDS011;8350;52.316;10.530;2022-08-21T07:24:59;3.80;;;2.25;;
16478;SDS011;8350;52.316;10.530;2022-08-21T07:27:25;4.22;;;2.08;;
16478;SDS011;8350;52.316;10.530;2022-08-21T07:29:52;2.25;;;2.05;;
16478;SDS011;8350;52.316;10.530;2022-08-21T07:32:19;3.47;;;1.92;;
16478;SDS011;8350;52.316;10.530;2022-08-21T07:34:46;2.28;;;1.73;;
16478;SDS011;8350;52.316;10.530;2022-08-21T07:37:12;5.05;;;2.17;;
16478;SDS011;8350;52.316;10.530;2022-08-21T07:39:40;4.38;;;1.90;;
16478;SDS011;8350;52.316;10.530;2022-08-21T07:42:08;3.65;;;1.85;;
16478;SDS011;8350;52.316;10.530;2022-08-21T07:44:35;3.92;;;2.17;;
16478;SDS011;8350;52.316;10.530;2022-08-21T07:47:02;3.70;;;1.83;;
16478;SDS011;8350;52.316;10.530;2022-08-21T07:49:31;2.08;;;1.63;;
16478;SDS011;8350;52.316;10.530;2022-08-21T07:51:57;2.33;;;2.05;;
16478;SDS011;8350;52.316;10.530;2022-08-21T07:54:24;2.38;;;1.50;;
16478;SDS011;8350;52.316;10.530;2022-08-21T07:56:51;2.60;;;1.73;;
16478;SDS011;8350;52.316;10.530;2022-08-21T07:59:19;3.63;;;1.88;;
16478;SDS011;8350;52.316;10.530;2022-08-21T08:01:46;2.42;;;1.85;;
16478;SDS011;8350;52.316;10.530;2022-08-21T08:04:13;2.70;;;2.08;;
16478;SDS011;8350;52.316;10.530;2022-08-21T08:06:40;3.55;;;1.98;;
16478;SDS011;8350;52.316;10.530;2022-08-21T08:09:07;3.78;;;2.22;;
16478;SDS011;8350;52.316;10.530;2022-08-21T08:11:41;2.90;;;2.00;;
16478;SDS011;8350;52.316;10.530;2022-08-21T08:14:09;2.95;;;2.13;;
16478;SDS011;8350;52.316;10.530;2022-08-21T08:16:37;3.10;;;2.08;;
16478;SDS011;8350;52.316;10.530;2022-08-21T08:19:04;4.70;;;2.10;;
16478;SDS011;8350;52.316;10.530;2022-08-21T08:21:31;4.20;;;1.95;;
16478;SDS011;8350;52.316;10.530;2022-08-21T08:23:58;3.53;;;1.65;;
16478;SDS011;8350;52.316;10.530;2022-08-21T08:26:25;2.78;;;1.52;;
16478;SDS011;8350;52.316;10.530;2022-08-21T08:28:52;2.20;;;1.60;;
16478;SDS011;8350;52.316;10.530;2022-08-21T08:31:19;4.22;;;2.10;;
16478;SDS011;8350;52.316;10.530;2022-08-21T08:33:47;3.22;;;2.63;;
16478;SDS011;8350;52.316;10.530;2022-08-21T08:36:15;6.38;;;2.08;;
16478;SDS011;8350;52.316;10.530;2022-08-21T08:38:43;5.18;;;2.58;;
16478;SDS011;8350;52.316;10.530;2022-08-21T08:41:12;4.03;;;2.40;;
16478;SDS011;8350;52.316;10.530;2022-08-21T08:43:40;5.75;;;2.67;;
16478;SDS011;8350;52.316;10.530;2022-08-21T08:46:11;5.75;;;2.53;;
16478;SDS011;8350;52.316;10.530;2022-08-21T08:48:43;4.18;;;2.58;;
16478;SDS011;8350;52.316;10.530;2022-08-21T08:51:16;3.88;;;2.42;;
16478;SDS011;8350;52.316;10.530;2022-08-21T08:53:50;3.80;;;2.20;;
16478;SDS011;8350;52.316;10.530;2022-08-21T08:56:21;3.58;;;2.40;;
16478;SDS011;8350;52.316;10.530;2022-08-21T08:58:53;3.22;;;2.40;;
16478;SDS011;8350;52.316;10.530;2022-08-21T09:01:24;3.50;;;2.67;;
16478;SDS011;8350;52.316;10.530;2022-08-21T09:03:51;4.93;;;2.40;;
16478;SDS011;8350;52.316;10.530;2022-08-21T09:06:23;3.97;;;3.22;;
16478;SDS011;8350;52.316;10.530;2022-08-21T09:09:02;3.22;;;2.38;;
16478;SDS011;8350;52.316;10.530;2022-08-21T09:11:37;7.00;;;2.75;;
16478;SDS011;8350;52.316;10.530;2022-08-21T09:14:16;6.05;;;2.50;;
16478;SDS011;8350;52.316;10.530;2022-08-21T09:16:52;5.50;;;3.08;;
16478;SDS011;8350;52.316;10.530;2022-08-21T09:19:28;3.00;;;2.28;;
16478;SDS011;8350;52.316;10.530;2022-08-21T09:22:09;4.40;;;2.45;;
16478;SDS011;8350;52.316;10.530;2022-08-21T09:24:45;4.00;;;3.00;;
16478;SDS011;8350;52.316;10.530;2022-08-21T09:27:18;4.68;;;2.88;;
16478;SDS011;8350;52.316;10.530;2022-08-21T09:29:49;6.80;;;3.10;;
16478;SDS011;8350;52.316;10.530;2022-08-21T09:32:19;5.25;;;2.60;;
16478;SDS011;8350;52.316;10.530;2022-08-21T09:34:54;5.57;;;3.30;;
16478;SDS011;8350;52.316;10.530;2022-08-21T09:37:24;5.22;;;2.72;;
16478;SDS011;8350;52.316;10.530;2022-08-21T09:39:53;7.00;;;3.00;;
16478;SDS011;8350;52.316;10.530;2022-08-21T09:42:21;5.07;;;2.78;;
16478;SDS011;8350;52.316;10.530;2022-08-21T09:45:10;5.07;;;3.00;;
16478;SDS011;8350;52.316;10.530;2022-08-21T09:47:38;5.07;;;3.05;;
16478;SDS011;8350;52.316;10.530;2022-08-21T09:50:09;3.80;;;2.30;;
16478;SDS011;8350;52.316;10.530;2022-08-21T09:52:43;4.35;;;3.03;;
16478;SDS011;8350;52.316;10.530;2022-08-21T09:55:15;6.50;;;3.50;;
16478;SDS011;8350;52.316;10.530;2022-08-21T09:57:59;6.22;;;3.03;;
16478;SDS011;8350;52.316;10.530;2022-08-21T10:00:29;4.90;;;2.70;;
16478;SDS011;8350;52.316;10.530;2022-08-21T10:03:07;7.93;;;3.03;;
16478;SDS011;8350;52.316;10.530;2022-08-21T10:05:36;5.53;;;3.28;;
16478;SDS011;8350;52.316;10.530;2022-08-21T10:08:06;6.80;;;2.95;;
16478;SDS011;8350;52.316;10.530;2022-08-21T10:10:43;6.10;;;2.60;;
16478;SDS011;8350;52.316;10.530;2022-08-21T10:13:12;8.98;;;2.88;;
16478;SDS011;8350;52.316;10.530;2022-08-21T10:15:51;5.47;;;2.55;;
16478;SDS011;8350;52.316;10.530;2022-08-21T10:18:29;5.18;;;3.03;;
16478;SDS011;8350;52.316;10.530;2022-08-21T10:21:07;7.18;;;2.47;;
16478;SDS011;8350;52.316;10.530;2022-08-21T10:23:45;4.28;;;2.50;;
16478;SDS011;8350;52.316;10.530;2022-08-21T10:26:30;11.07;;;3.13;;
16478;SDS011;8350;52.316;10.530;2022-08-21T10:29:05;4.32;;;2.63;;
16478;SDS011;8350;52.316;10.530;2022-08-21T10:31:42;6.63;;;2.42;;
16478;SDS011;8350;52.316;10.530;2022-08-21T10:34:20;6.35;;;2.50;;
16478;SDS011;8350;52.316;10.530;2022-08-21T10:36:59;7.43;;;2.35;;
16478;SDS011;8350;52.316;10.530;2022-08-21T10:39:34;7.13;;;2.78;;
16478;SDS011;8350;52.316;10.530;2022-08-21T10:42:09;6.07;;;2.28;;
16478;SDS011;8350;52.316;10.530;2022-08-21T10:44:59;5.15;;;2.00;;
16478;SDS011;8350;52.316;10.530;2022-08-21T10:47:37;4.65;;;2.10;;
16478;SDS011;8350;52.316;10.530;2022-08-21T10:50:12;3.97;;;2.35;;
16478;SDS011;8350;52.316;10.530;2022-08-21T10:52:49;4.68;;;2.50;;
16478;SDS011;8350;52.316;10.530;2022-08-21T10:55:31;4.63;;;2.78;;
16478;SDS011;8350;52.316;10.530;2022-08-21T10:58:02;6.60;;;2.45;;
16478;SDS011;8350;52.316;10.530;2022-08-21T11:00:35;4.20;;;1.90;;
16478;SDS011;8350;52.316;10.530;2022-08-21T11:03:10;7.55;;;2.35;;
16478;SDS011;8350;52.316;10.530;2022-08-21T11:05:40;5.32;;;2.88;;
16478;SDS011;8350;52.316;10.530;2022-08-21T11:08:10;3.05;;;1.90;;
16478;SDS011;8350;52.316;10.530;2022-08-21T11:10:42;3.95;;;2.45;;
16478;SDS011;8350;52.316;10.530;2022-08-21T11:13:14;5.95;;;2.33;;
16478;SDS011;8350;52.316;10.530;2022-08-21T11:15:56;5.32;;;2.58;;
16478;SDS011;8350;52.316;10.530;2022-08-21T11:18:30;4.18;;;2.15;;
16478;SDS011;8350;52.316;10.530;2022-08-21T11:21:02;7.20;;;2.75;;
16478;SDS011;8350;52.316;10.530;2022-08-21T11:23:39;4.07;;;2.53;;
16478;SDS011;8350;52.316;10.530;2022-08-21T11:26:11;6.03;;;2.42;;
16478;SDS011;8350;52.316;10.530;2022-08-21T11:28:45;3.60;;;2.17;;
16478;SDS011;8350;52.316;10.530;2022-08-21T11:31:21;6.65;;;2.40;;
16478;SDS011;8350;52.316;10.530;2022-08-21T11:33:59;5.57;;;2.95;;
16478;SDS011;8350;52.316;10.530;2022-08-21T11:36:35;4.65;;;2.40;;
16478;SDS011;8350;52.316;10.530;2022-08-21T11:39:10;3.83;;;1.90;;
16478;SDS011;8350;52.316;10.530;2022-08-21T11:41:46;3.35;;;2.28;;
16478;SDS011;8350;52.316;10.530;2022-08-21T11:44:23;4.05;;;2.45;;
16478;SDS011;8350;52.316;10.530;2022-08-21T11:47:02;6.35;;;2.10;;
16478;SDS011;8350;52.316;10.530;2022-08-21T11:49:44;4.63;;;2.40;;
16478;SDS011;8350;52.316;10.530;2022-08-21T11:52:26;3.83;;;1.83;;
16478;SDS011;8350;52.316;10.530;2022-08-21T11:54:58;5.57;;;2.03;;
16478;SDS011;8350;52.316;10.530;2022-08-21T11:57:30;4.35;;;1.90;;
16478;SDS011;8350;52.316;10.530;2022-08-21T12:00:03;4.05;;;1.70;;
16478;SDS011;8350;52.316;10.530;2022-08-21T12:02:33;2.60;;;1.58;;
16478;SDS011;8350;52.316;10.530;2022-08-21T12:05:03;5.43;;;1.75;;
16478;SDS011;8350;52.316;10.530;2022-08-21T12:07:33;5.85;;;1.73;;
16478;SDS011;8350;52.316;10.530;2022-08-21T12:10:04;4.32;;;1.83;;
16478;SDS011;8350;52.316;10.530;2022-08-21T12:12:37;3.17;;;1.73;;
16478;SDS011;8350;52.316;10.530;2022-08-21T12:15:16;3.17;;;1.73;;
16478;SDS011;8350;52.316;10.530;2022-08-21T12:17:52;4.30;;;1.90;;
16478;SDS011;8350;52.316;10.530;2022-08-21T12:20:25;4.50;;;1.80;;
16478;SDS011;8350;52.316;10.530;2022-08-21T12:23:05;2.78;;;1.65;;
16478;SDS011;8350;52.316;10.530;2022-08-21T12:25:44;2.42;;;1.80;;
16478;SDS011;8350;52.316;10.530;2022-08-21T12:28:15;3.17;;;1.70;;
16478;SDS011;8350;52.316;10.530;2022-08-21T12:30:48;3.53;;;1.92;;
16478;SDS011;8350;52.316;10.530;2022-08-21T12:33:19;3.80;;;1.73;;
16478;SDS011;8350;52.316;10.530;2022-08-21T12:35:50;3.22;;;1.52;;
16478;SDS011;8350;52.316;10.530;2022-08-21T12:38:20;3.17;;;1.85;;
16478;SDS011;8350;52.316;10.530;2022-08-21T12:40:51;3.70;;;1.60;;
16478;SDS011;8350;52.316;10.530;2022-08-21T12:43:24;2.88;;;1.63;;
16478;SDS011;8350;52.316;10.530;2022-08-21T12:45:55;2.65;;;1.23;;
16478;SDS011;8350;52.316;10.530;2022-08-21T12:48:33;3.28;;;1.58;;
16478;SDS011;8350;52.316;10.530;2022-08-21T12:51:08;2.63;;;1.48;;
16478;SDS011;8350;52.316;10.530;2022-08-21T12:53:39;4.93;;;1.80;;
16478;SDS011;8350;52.316;10.530;2022-08-21T12:56:11;3.65;;;1.70;;
16478;SDS011;8350;52.316;10.530;2022-08-21T12:58:41;3.13;;;1.33;;
16478;SDS011;8350;52.316;10.530;2022-08-21T13:01:13;3.70;;;1.60;;
16478;SDS011;8350;52.316;10.530;2022-08-21T13:03:45;1.60;;;1.08;;
16478;SDS011;8350;52.316;10.530;2022-08-21T13:06:13;3.50;;;1.25;;
16478;SDS011;8350;52.316;10.530;2022-08-21T13:08:42;3.38;;;1.52;;
16478;SDS011;8350;52.316;10.530;2022-08-21T13:11:10;4.63;;;1.13;;
16478;SDS011;8350;52.316;10.530;2022-08-21T13:13:47;2.28;;;1.05;;
16478;SDS011;8350;52.316;10.530;2022-08-21T13:16:17;2.08;;;1.10;;
16478;SDS011;8350;52.316;10.530;2022-08-21T13:18:52;2.10;;;1.30;;
16478;SDS011;8350;52.316;10.530;2022-08-21T13:21:21;2.92;;;1.27;;
16478;SDS011;8350;52.316;10.530;2022-08-21T13:23:52;5.03;;;1.55;;
16478;SDS011;8350;52.316;10.530;2022-08-21T13:26:21;1.60;;;1.20;;
16478;SDS011;8350;52.316;10.530;2022-08-21T13:28:49;3.60;;;1.20;;
16478;SDS011;8350;52.316;10.530;2022-08-21T13:31:17;3.88;;;1.40;;
16478;SDS011;8350;52.316;10.530;2022-08-21T13:33:46;2.08;;;1.20;;
16478;SDS011;8350;52.316;10.530;2022-08-21T13:36:17;4.32;;;1.50;;
16478;SDS011;8350;52.316;10.530;2022-08-21T13:38:46;2.92;;;1.33;;
16478;SDS011;8350;52.316;10.530;2022-08-21T13:41:18;2.53;;;1.30;;
16478;SDS011;8350;52.316;10.530;2022-08-21T13:43:55;4.80;;;1.30;;
16478;SDS011;8350;52.316;10.530;2022-08-21T13:46:24;2.55;;;1.05;;
16478;SDS011;8350;52.316;10.530;2022-08-21T13:48:54;3.10;;;1.23;;
16478;SDS011;8350;52.316;10.530;2022-08-21T13:51:22;3.35;;;1.58;;
16478;SDS011;8350;52.316;10.530;2022-08-21T13:53:50;3.22;;;1.30;;
16478;SDS011;8350;52.316;10.530;2022-08-21T13:56:21;4.13;;;1.40;;
16478;SDS011;8350;52.316;10.530;2022-08-21T13:58:52;3.35;;;1.50;;
16478;SDS011;8350;52.316;10.530;2022-08-21T14:01:21;3.28;;;1.58;;
16478;SDS011;8350;52.316;10.530;2022-08-21T14:03:50;2.50;;;1.30;;
16478;SDS011;8350;52.316;10.530;2022-08-21T14:06:20;3.10;;;1.33;;
16478;SDS011;8350;52.316;10.530;2022-08-21T14:08:49;2.30;;;1.20;;
16478;SDS011;8350;52.316;10.530;2022-08-21T14:11:19;4.45;;;1.65;;
16478;SDS011;8350;52.316;10.530;2022-08-21T14:13:48;3.40;;;1.30;;
16478;SDS011;8350;52.316;10.530;2022-08-21T14:16:24;2.85;;;1.55;;
16478;SDS011;8350;52.316;10.530;2022-08-21T14:18:53;2.97;;;1.27;;
16478;SDS011;8350;52.316;10.530;2022-08-21T14:21:33;2.70;;;1.50;;
16478;SDS011;8350;52.316;10.530;2022-08-21T14:24:02;2.72;;;1.33;;
16478;SDS011;8350;52.316;10.530;2022-08-21T14:26:32;2.13;;;1.20;;
16478;SDS011;8350;52.316;10.530;2022-08-21T14:29:00;2.53;;;1.30;;
16478;SDS011;8350;52.316;10.530;2022-08-21T14:31:31;3.78;;;1.70;;
16478;SDS011;8350;52.316;10.530;2022-08-21T14:33:59;3.00;;;1.10;;
16478;SDS011;8350;52.316;10.530;2022-08-21T14:36:27;3.35;;;1.20;;
16478;SDS011;8350;52.316;10.530;2022-08-21T14:38:53;2.33;;;1.20;;
16478;SDS011;8350;52.316;10.530;2022-08-21T14:41:21;2.53;;;1.27;;
16478;SDS011;8350;52.316;10.530;2022-08-21T14:43:50;2.28;;;1.27;;
16478;SDS011;8350;52.316;10.530;2022-08-21T14:46:20;2.75;;;1.27;;
16478;SDS011;8350;52.316;10.530;2022-08-21T14:48:50;3.47;;;1.35;;
16478;SDS011;8350;52.316;10.530;2022-08-21T14:51:17;2.90;;;1.25;;
16478;SDS011;8350;52.316;10.530;2022-08-21T14:53:44;2.58;;;1.30;;
16478;SDS011;8350;52.316;10.530;2022-08-21T14:56:11;2.53;;;1.30;;
16478;SDS011;8350;52.316;10.530;2022-08-21T14:58:42;1.88;;;1.15;;
16478;SDS011;8350;52.316;10.530;2022-08-21T15:01:15;4.13;;;1.75;;
16478;SDS011;8350;52.316;10.530;2022-08-21T15:03:43;3.42;;;1.38;;